createdAt,value
2022-12-11T00:03:25.457Z,1.32
2022-12-11T00:08:17.193Z,1.33
2022-12-11T00:13:08.977Z,1.33
2022-12-11T00:18:00.634Z,1.28
2022-12-11T00:22:52.425Z,1.26
2022-12-11T00:27:46.580Z,1.24
2022-12-11T00:32:38.201Z,1.24
2022-12-11T00:37:30.702Z,1.18
2022-12-11T00:42:22.435Z,1.16
2022-12-11T00:47:14.140Z,1.16
2022-12-11T00:52:05.822Z,1.15
2022-12-11T00:56:57.475Z,1.14
2022-12-11T01:01:49.194Z,1.15
2022-12-11T01:06:40.941Z,1.19
2022-12-11T01:11:32.917Z,1.17
2022-12-11T01:16:24.684Z,1.17
2022-12-11T01:21:16.494Z,1.16
2022-12-11T01:26:10.443Z,1.14
2022-12-11T01:31:02.392Z,1.13
2022-12-11T01:35:54.541Z,1.10
2022-12-11T01:40:53.146Z,1.06
2022-12-11T01:45:49.781Z,1.03
2022-12-11T01:50:47.621Z,0.96
2022-12-11T01:55:40.993Z,0.93
2022-12-11T02:00:32.816Z,0.89
2022-12-11T02:05:24.492Z,0.84
2022-12-11T02:10:16.591Z,0.76
2022-12-11T02:15:17.236Z,0.73
2022-12-11T02:20:29.613Z,0.66
2022-12-11T02:25:30.782Z,0.57
2022-12-11T02:30:23.887Z,0.50
2022-12-11T02:35:21.756Z,0.43
2022-12-11T02:40:17.923Z,0.42
2022-12-11T02:45:11.410Z,0.42
2022-12-11T02:50:09.943Z,0.39
2022-12-11T02:55:03.531Z,0.40
2022-12-11T02:59:55.444Z,0.37
2022-12-11T03:04:48.222Z,0.38
2022-12-11T03:09:40.517Z,0.40
2022-12-11T03:14:32.297Z,0.48
2022-12-11T03:19:29.148Z,0.55
2022-12-11T03:24:30.354Z,0.59
2022-12-11T03:29:30.218Z,0.60
2022-12-11T03:34:33.938Z,0.68
2022-12-11T03:39:30.956Z,0.74
2022-12-11T03:44:24.907Z,0.79
2022-12-11T03:49:20.035Z,0.84
2022-12-11T03:54:12.053Z,0.85
2022-12-11T03:59:03.885Z,0.89
2022-12-11T04:03:55.878Z,0.91
2022-12-11T04:08:47.877Z,0.85
2022-12-11T04:13:41.214Z,0.87
2022-12-11T04:18:51.792Z,0.88
2022-12-11T04:24:02.557Z,0.87
2022-12-11T04:28:54.318Z,0.90
2022-12-11T04:33:46.518Z,0.93
2022-12-11T04:38:38.217Z,0.92
2022-12-11T04:43:30.104Z,0.93
2022-12-11T04:48:21.887Z,0.89
2022-12-11T04:53:13.674Z,0.91
2022-12-11T04:58:05.550Z,0.89
2022-12-11T05:02:57.327Z,0.89
2022-12-11T05:07:49.185Z,0.88
2022-12-11T05:12:40.876Z,0.87
2022-12-11T05:17:32.580Z,0.92
2022-12-11T05:22:24.386Z,0.92
2022-12-11T05:27:16.245Z,0.94
2022-12-11T05:32:08.291Z,0.96
2022-12-11T05:37:00.027Z,0.93
2022-12-11T05:41:51.888Z,0.95
2022-12-11T05:46:43.624Z,0.96
2022-12-11T05:51:35.573Z,0.97
2022-12-11T05:56:29.961Z,0.94
2022-12-11T06:01:29.752Z,0.95
2022-12-11T06:06:22.695Z,0.95
2022-12-11T06:11:17.277Z,0.94
2022-12-11T06:16:11.756Z,0.91
2022-12-11T06:21:14.805Z,0.88
2022-12-11T06:26:07.208Z,0.84
2022-12-11T06:30:59.935Z,0.79
2022-12-11T06:35:52.247Z,0.71
2022-12-11T06:40:44.149Z,0.61
2022-12-11T06:45:38.265Z,0.58
2022-12-11T06:50:30.013Z,0.56
2022-12-11T06:55:21.867Z,0.53
2022-12-11T07:00:14.423Z,0.56
2022-12-11T07:05:06.697Z,0.55
2022-12-11T07:10:04.086Z,0.60
2022-12-11T07:14:59.632Z,0.64
2022-12-11T07:19:51.395Z,0.63
2022-12-11T07:24:43.277Z,0.64
2022-12-11T07:29:34.926Z,0.62
2022-12-11T07:34:26.663Z,0.62
2022-12-11T07:39:18.634Z,0.63
2022-12-11T07:44:10.654Z,0.63
2022-12-11T07:49:02.918Z,0.62
2022-12-11T07:54:13.077Z,0.61
2022-12-11T07:59:06.359Z,0.59
2022-12-11T08:03:58.104Z,0.59
2022-12-11T08:08:49.781Z,0.62
2022-12-11T08:13:42.545Z,0.60
2022-12-11T08:18:35.591Z,0.59
2022-12-11T08:23:27.304Z,0.61
2022-12-11T08:28:19.022Z,0.62
2022-12-11T08:33:10.787Z,0.65
2022-12-11T08:38:02.501Z,0.65
2022-12-11T08:42:54.254Z,0.66
2022-12-11T08:47:46.252Z,0.67
2022-12-11T08:52:37.951Z,0.68
2022-12-11T08:57:29.832Z,0.70
2022-12-11T09:02:21.889Z,0.73
2022-12-11T09:07:13.666Z,0.76
2022-12-11T09:12:05.586Z,0.81
2022-12-11T09:16:57.423Z,0.89
2022-12-11T09:21:49.280Z,0.95
2022-12-11T09:26:42.316Z,0.97
2022-12-11T09:31:36.500Z,0.99
2022-12-11T09:36:29.713Z,1.01
2022-12-11T09:41:21.652Z,1.05
2022-12-11T09:46:15.661Z,1.10
2022-12-11T09:51:19.109Z,1.14
2022-12-11T09:56:26.185Z,1.17
2022-12-11T10:01:27.228Z,1.21
2022-12-11T10:06:42.286Z,1.24
2022-12-11T10:12:02.035Z,1.23
2022-12-11T10:17:27.764Z,1.24
2022-12-11T10:22:23.963Z,1.23
2022-12-11T10:27:21.499Z,1.25
2022-12-11T10:32:24.480Z,1.24
2022-12-11T10:37:16.286Z,1.25
2022-12-11T10:42:19.579Z,1.33
2022-12-11T10:47:14.642Z,1.40
2022-12-11T10:52:43.334Z,1.50
2022-12-11T10:57:37.288Z,1.52
2022-12-11T11:02:33.058Z,1.56
2022-12-11T11:07:33.252Z,1.56
2022-12-11T11:12:28.078Z,1.63
2022-12-11T11:17:20.060Z,1.71
2022-12-11T11:22:18.387Z,1.73
2022-12-11T11:27:34.855Z,1.74
2022-12-11T11:32:30.304Z,1.73
2022-12-11T11:37:31.964Z,1.77
2022-12-11T11:42:43.957Z,1.82
2022-12-11T11:47:43.134Z,1.84
2022-12-11T11:52:53.699Z,1.86
2022-12-11T11:57:52.839Z,1.91
2022-12-11T12:02:47.194Z,1.93
2022-12-11T12:07:51.754Z,1.97
2022-12-11T12:13:23.935Z,1.94
2022-12-11T12:18:43.803Z,1.95
2022-12-11T12:23:59.980Z,1.91
2022-12-11T12:29:07.011Z,1.95
2022-12-11T12:34:20.314Z,1.93
2022-12-11T12:39:24.536Z,1.96
2022-12-11T12:44:20.287Z,2.01
2022-12-11T12:49:17.763Z,2.06
2022-12-11T12:54:15.319Z,2.11
2022-12-11T12:59:19.644Z,2.19
2022-12-11T13:04:54.325Z,2.24
2022-12-11T13:09:41.108Z,2.33
2022-12-11T13:14:33.825Z,2.43
2022-12-11T13:19:28.546Z,2.49
2022-12-11T13:24:20.225Z,2.52
2022-12-11T13:29:36.729Z,2.54
2022-12-11T13:34:33.644Z,2.59
2022-12-11T13:39:28.135Z,2.63
2022-12-11T13:44:27.368Z,2.61
2022-12-11T13:49:51.023Z,2.61
2022-12-11T13:54:51.469Z,2.63
2022-12-11T13:59:48.514Z,2.60
2022-12-11T14:04:40.887Z,2.52
2022-12-11T14:09:32.794Z,2.46
2022-12-11T14:14:42.144Z,2.42
2022-12-11T14:19:33.836Z,2.39
2022-12-11T14:24:26.145Z,2.40
2022-12-11T14:29:32.440Z,2.43
2022-12-11T14:34:28.735Z,2.44
2022-12-11T14:39:26.146Z,2.45
2022-12-11T14:44:21.424Z,2.46
2022-12-11T14:49:44.700Z,2.49
2022-12-11T14:54:40.778Z,2.50
2022-12-11T14:59:39.452Z,2.50
2022-12-11T15:04:33.419Z,2.47
2022-12-11T15:09:36.770Z,2.45
2022-12-11T15:14:35.048Z,2.40
2022-12-11T15:19:33.283Z,2.36
2022-12-11T15:24:32.435Z,2.40
2022-12-11T15:29:32.242Z,2.40
2022-12-11T15:34:24.133Z,2.40
2022-12-11T15:39:15.980Z,2.39
2022-12-11T15:44:18.828Z,2.39
2022-12-11T15:49:13.850Z,2.37
2022-12-11T15:54:05.806Z,2.36
2022-12-11T15:59:03.507Z,2.33
2022-12-11T16:03:58.164Z,2.25
2022-12-11T16:08:53.782Z,2.20
2022-12-11T16:13:45.584Z,2.10
2022-12-11T16:18:37.252Z,2.05
2022-12-11T16:23:29.812Z,1.99
2022-12-11T16:28:21.554Z,1.87
2022-12-11T16:33:13.801Z,1.88
2022-12-11T16:38:05.574Z,1.91
2022-12-11T16:42:57.732Z,1.91
2022-12-11T16:47:49.775Z,1.97
2022-12-11T16:52:43.038Z,2.01
2022-12-11T16:57:35.987Z,2.03
2022-12-11T17:02:27.780Z,1.99
2022-12-11T17:07:19.778Z,1.98
2022-12-11T17:12:11.503Z,1.96
2022-12-11T17:17:03.396Z,1.94
2022-12-11T17:21:56.220Z,1.96
2022-12-11T17:26:48.142Z,1.90
2022-12-11T17:31:40.546Z,1.83
2022-12-11T17:36:32.413Z,1.82
2022-12-11T17:41:24.425Z,1.78
2022-12-11T17:46:16.278Z,1.84
2022-12-11T17:51:09.703Z,1.80
2022-12-11T17:56:03.915Z,1.79
2022-12-11T18:00:58.094Z,1.78
2022-12-11T18:05:52.626Z,1.71
2022-12-11T18:10:44.364Z,1.69
2022-12-11T18:15:37.194Z,1.66
2022-12-11T18:20:29.070Z,1.65
2022-12-11T18:25:21.051Z,1.65
2022-12-11T18:30:14.568Z,1.61
2022-12-11T18:35:06.803Z,1.60
2022-12-11T18:39:58.647Z,1.59
2022-12-11T18:44:50.404Z,1.59
2022-12-11T18:49:42.408Z,1.59
2022-12-11T18:54:34.298Z,1.61
2022-12-11T18:59:26.664Z,1.61
2022-12-11T19:04:18.631Z,1.63
2022-12-11T19:09:12.892Z,1.65
2022-12-11T19:14:05.194Z,1.62
2022-12-11T19:19:02.927Z,1.66
2022-12-11T19:23:54.807Z,1.70
2022-12-11T19:28:47.070Z,1.74
2022-12-11T19:33:40.592Z,1.73
2022-12-11T19:38:32.428Z,1.73
2022-12-11T19:43:24.234Z,1.69
2022-12-11T19:48:16.451Z,1.70
2022-12-11T19:53:11.725Z,1.69
2022-12-11T19:58:03.510Z,1.67
2022-12-11T20:02:55.180Z,1.61
2022-12-11T20:07:47.005Z,1.57
2022-12-11T20:12:38.982Z,1.54
2022-12-11T20:17:31.517Z,1.53
2022-12-11T20:22:23.469Z,1.48
2022-12-11T20:27:15.425Z,1.45
2022-12-11T20:32:07.765Z,1.41
2022-12-11T20:37:00.558Z,1.38
2022-12-11T20:41:52.437Z,1.34
2022-12-11T20:46:44.231Z,1.33
2022-12-11T20:51:35.945Z,1.33
2022-12-11T20:56:30.046Z,1.32
2022-12-11T21:01:25.150Z,1.31
2022-12-11T21:06:31.325Z,1.26
2022-12-11T21:11:24.112Z,1.17
2022-12-11T21:16:15.961Z,1.07
2022-12-11T21:21:07.778Z,1.00
2022-12-11T21:25:59.665Z,1.01
2022-12-11T21:30:51.316Z,0.99
2022-12-11T21:35:43.157Z,1.02
2022-12-11T21:40:35.182Z,1.00
2022-12-11T21:45:59.390Z,0.98
2022-12-11T21:50:38.561Z,0.92
2022-12-11T21:55:30.397Z,0.81
2022-12-11T22:00:23.651Z,0.75
2022-12-11T22:05:15.867Z,0.64
2022-12-11T22:10:08.400Z,0.60
2022-12-11T22:15:00.351Z,0.55
2022-12-11T22:19:52.131Z,0.47
2022-12-11T22:24:44.078Z,0.35
2022-12-11T22:29:36.041Z,0.25
2022-12-11T22:34:27.830Z,0.22
2022-12-11T22:39:19.763Z,0.15
2022-12-11T22:44:20.199Z,0.07
2022-12-11T22:49:12.106Z,0.04
2022-12-11T22:54:04.672Z,-0.02
2022-12-11T22:58:59.782Z,-0.08
2022-12-11T23:03:52.568Z,-0.11
2022-12-11T23:08:44.776Z,-0.14
2022-12-11T23:13:36.589Z,-0.26
2022-12-11T23:18:28.251Z,-0.27
2022-12-11T23:23:20.019Z,-0.27
2022-12-11T23:28:11.883Z,-0.25
2022-12-11T23:33:03.850Z,-0.24
2022-12-11T23:37:55.624Z,-0.23
2022-12-11T23:42:47.321Z,-0.26
2022-12-11T23:47:39.010Z,-0.21
2022-12-11T23:52:30.682Z,-0.17
2022-12-11T23:57:22.363Z,-0.14
